Waddington, United Kingdom
Current Conditions -  °F | °C
As of 4:50 AM on Saturday 29 Nov 2014 (Local Time) from EGXW Reporting Station
Haze Haze  
Wind Chill:   Ceiling: 10000
Heat Index:   Visibility: 3mi
Dew Point:   Wind: 10mph
Humidity: 100%   Direction: 100°E
Pressure: 29.83"   Gusts: NA
Location:  53.17°N, 0.52°W
Report Text: EGXW 290450Z 10009KT 5000 BR FEW006 OVC100 09/09 Q1010 WHT
Loading
Personal Weather Stations






























Interactive Weather Map New forecast layout! Learn more

10-Day Weather Forecast

Advertisements
Track Severe Weather on mobile